Scroll down
FLIGHT INFORMATION
Federal Express (FedEx)

FDX9859

At Arrival Gate

LGAV
 LIMC
DATE: 2021-07-26
GATE: F11
GATE DEPARTURE: 06:18
TAKEOFF: 06:28
DATE: 2021-07-26
GATE:  -
LANDING: 08:41
GATE ARRIVAL: 08:48
FLIGHT DATA
Crew: 
Speed: 
502 kts
Altitude: 
40,020 ft
Stage Length: 
821.1 nm
Block Time: 
2.5 hrs
Flight Time: 
2.2 hrs
Fuel Used: 
29,152 lb
Cleared Route: LGAV KOR RIMAX XANIS YNN TUMBO RODON SIPAL ROTAR VIC ADOSA IDREK ELTAR NOBMI NEVNI OSKOR ORI LEGLO PEXUG LIMC
TRACK DATA
50,000 ft 1,000 kts
AIRCRAFT INFO AND CUMULATIVE STATS
Aircraft Type: 
B77LF
Registration: 
SELCAL: 
FRJK
MSN/LN: 
37730 / 1134
Total Flights: 
5
Total Block Time: 
53.8 hrs
Total Flight Time: 
52.8 hrs
Total Fuel Used: 
728,253 lb
DATALINK LOG | Newest first | Current as of: 2022-05-16 09:39:34
LABEL SEQUENCE CONTENT Dn/Up
QD505608:48 19.3▼ Dn
QC424908:41▼ Dn
2U4456LIMC 261420Z VRB05KT 9999 FEW035 SCT050 27/17 Q1013 NOSIG▲ Up
2S4456LIMC▼ Dn
QB304306:28▼ Dn
QA193306:18 48.5▼ Dn
A30528CLEARED TO LIMC VIA KOR1J KOR L613 RIMAX UL613 YNN UL611 TUMBO RODON SIPAL ROTAR VIC ADOSA L615 PEXUG PEXU1H. SQUAWK 1464.▲ Up
B30519LGAV LIMC FDX9859 N859FD ▼ Dn
2U0419LIMC 261250Z VRB03KT 9999 SCT035 27/17 Q1013 NOSIG▲ Up
2U0418LGAV 261250Z 02020KT CAVOK 32/08 Q1016 NOSIG▲ Up
2U0418LFLL 261300Z VRB05KT 9999 SCT046 25/14 Q1015 NOSIG▲ Up
2S0418LGAV LIMC LFLL▼ Dn
Q00014[LINK ACK]▲ Up
Q00014[LINK TEST]▼ Dn


AIRCRAFT HISTORY
FLIGHT DATE FLIGHT NO. ORIGIN DESTINATION CLEARED ROUTE BLOCK TIME FLIGHT TIME FUEL USED PILOT
2021-07-26FDX9859LGAV LIMC LGAV KOR RIMAX XANIS YNN TUMBO RODON SIPAL ROTAR VIC ADOSA IDREK ELTAR NOBMI NEVNI OSKOR ORI LEGLO PEXUG LIMC2.5 hrs2.2 hrs29,152 lbAllan Burek
2021-07-24FDX724RJBB LGAV RJBB BB430 HELEN MAIKO KAWAT OYE YUBAR MIHOU KAPPA IGRAS SABET PALDU KANSU SUBUK KAKPU ANKOG VASRO YNJ KANVU SAMAV UGABI KETOV HRB ONINA NDG TEPOD HLD KAGAK MANLI TELOK BADEK NAREM NEKLU AGINO LASAD KTN ALUMI MOPON ARNAB NIRUN GOGIL LUPIT NAROB ABLAS UBORA OSNIK OMITA OLBIG SOTOM BANUK UMRAT USOLI SOREB PAROM NJC TETSI APRAN ULGUN OGIKA NEGNA LARTU ABGIL SORLI NETLU OGROM OSKEL SOGTE NIPSI UGBAT TISRU SONIB RATUN BITBA IBREL RESTA LORPI BALOB RUKUT ROTLO EKMOK RISIM POGAS BAPEG IPSES BULAT SOTOG DIVEK OBARO LIMPI ABUTO PIMEN NEMIP TUVOG BAKOK NEVRU LAVDA NUNTA OPT TUMOP BULEN TUNVO NIKTI LOPTI KPL ASPIV SUTIS KOROS AMISI NEVRA LGAV22.2 hrs22 hrs223,252 lbAlex K.
2021-07-23FDX723KIND RJBB KIND BVT KP87K DLH HLDOL VBI YNE 56N00 IKLIX 63N20 65N30 FIORD HSL OME ICEEE IDROD ROCET MUCLA MARCC MORLY NATES NIKLL NYMPH NUZAN NRKEY NIPPI NOGAL NUBDA NANNO NODAN NANAC NIKON BEKEN IXE DAIGO JD AKAGI GYODA TEPEX OSPAN PIGAP TENRU SUGAL NAKTU KOHWA SHIMA AYANO RAYJO KEC KISEI EVERT CANDY RJBB13.2 hrs13.1 hrs230,612 lbAlex K.
2021-03-07FDX3LFPG KIND LFPG ATREX VESAN RATUK SOVAT SANDY BIG GOXUL LINDY NORRY CPT KENET GAVGO DEZZU DIKAS LUFTU STU BAKUR RESNO 5620N 5730N 5740N 5650N JANJO MT YYB 4680N NOSIK HOCKE SJAAY KIND8.4 hrs8.2 hrs129,526 lbAllan Burek
2021-02-26FDX30KIND LFPG KIND BDOCK APE EWC SFK HNK CTR LWM TUSKY SCOTS NICSO 4850N 5040N 5130N 5220N LIMRI XETBO MAPAG TUVEN LESLU INSUN LND NAKID ANNET UVSUV INGOR LUKIP LFPG7.5 hrs7.2 hrs115,711 lbAllan Burek